Time;durP1;ratioP1;P1;durP2;ratioP2;P2;SDS_P1;SDS_P2;PMS_P1;PMS_P2;Temp;Humidity;BMP_temperature;BMP_pressure;BME280_temperature;BME280_humidity;BME280_pressure;Samples;Min_cycle;Max_cycle;Signal;HPM_P1;HPM_P2
2022/06/30 00:00:09;;;;;;;12.80;11.40;;;;;;;;;;5330560;27;20110;-80
2022/06/30 00:02:40;;;;;;;15.32;12.38;;;;;;;;;;5336101;27;20028;-80
2022/06/30 00:05:12;;;;;;;16.70;12.20;;;;;;;;;;5336045;27;20028;-80
2022/06/30 00:07:43;;;;;;;16.45;12.73;;;;;;;;;;5336079;27;20463;-80
2022/06/30 00:10:15;;;;;;;14.98;12.50;;;;;;;;;;5335225;27;20047;-80
2022/06/30 00:12:46;;;;;;;13.27;11.57;;;;;;;;;;5335724;27;20055;-80
2022/06/30 00:15:17;;;;;;;14.70;12.50;;;;;;;;;;5338697;27;20077;-80
2022/06/30 00:17:49;;;;;;;15.80;11.82;;;;;;;;;;5337055;27;20384;-80
2022/06/30 00:20:20;;;;;;;14.50;12.55;;;;;;;;;;5334985;27;20391;-80
2022/06/30 00:22:51;;;;;;;13.93;10.10;;;;;;;;;;5338813;27;20781;-80
2022/06/30 00:25:23;;;;;;;14.17;12.07;;;;;;;;;;5336249;27;20032;-80
2022/06/30 00:27:54;;;;;;;15.87;12.10;;;;;;;;;;5337425;27;20533;-80
2022/06/30 00:30:25;;;;;;;12.23;11.07;;;;;;;;;;5335391;27;20246;-80
2022/06/30 00:32:56;;;;;;;12.48;11.20;;;;;;;;;;5335589;27;20039;-80
2022/06/30 00:35:28;;;;;;;12.77;11.52;;;;;;;;;;5336755;27;20176;-80
2022/06/30 00:37:59;;;;;;;9.80;8.90;;;;;;;;;;5333836;27;20028;-80
2022/06/30 00:40:34;;;;;;;14.60;13.23;;;;;;;;;;5334743;27;20357;-80
2022/06/30 00:43:05;;;;;;;14.40;12.90;;;;;;;;;;5338044;27;20081;-80
2022/06/30 00:45:43;;;;;;;14.05;12.70;;;;;;;;;;5338046;27;20024;-80
2022/06/30 00:48:15;;;;;;;12.60;11.40;;;;;;;;;;5335474;27;20062;-80
2022/06/30 00:50:47;;;;;;;12.07;10.90;;;;;;;;;;5335698;27;20043;-80
2022/06/30 00:53:19;;;;;;;12.53;10.90;;;;;;;;;;5336197;27;20928;-79
2022/06/30 00:55:51;;;;;;;16.27;14.73;;;;;;;;;;5337213;27;20582;-80
2022/06/30 00:58:23;;;;;;;17.23;15.52;;;;;;;;;;5327390;27;20078;-79
2022/06/30 01:00:54;;;;;;;20.77;15.18;;;;;;;;;;5336789;27;20024;-79
2022/06/30 01:03:26;;;;;;;11.60;10.50;;;;;;;;;;5337383;27;21523;-80
2022/06/30 01:05:58;;;;;;;11.68;10.65;;;;;;;;;;5338307;27;20021;-80
2022/06/30 01:08:30;;;;;;;18.63;16.80;;;;;;;;;;5340560;27;20210;-80
2022/06/30 01:13:53;;;;;;;10.30;9.40;;;;;;;;;;5339269;27;20154;-79
2022/06/30 01:16:24;;;;;;;11.07;10.07;;;;;;;;;;5337225;27;20103;-80
2022/06/30 01:18:55;;;;;;;16.07;13.67;;;;;;;;;;5339600;27;20530;-79
2022/06/30 01:21:27;;;;;;;18.30;15.90;;;;;;;;;;5340214;27;20552;-79
2022/06/30 01:23:58;;;;;;;18.40;16.50;;;;;;;;;;5333588;27;20278;-79
2022/06/30 01:26:30;;;;;;;18.30;16.40;;;;;;;;;;5341380;27;20189;-79
2022/06/30 01:29:05;;;;;;;12.10;11.00;;;;;;;;;;5339865;27;20416;-79
2022/06/30 01:31:36;;;;;;;17.42;15.63;;;;;;;;;;5337964;27;20031;-79
2022/06/30 01:34:07;;;;;;;16.03;14.57;;;;;;;;;;5337765;27;20035;-79
2022/06/30 01:36:38;;;;;;;16.52;14.88;;;;;;;;;;5338368;27;20274;-80
2022/06/30 01:39:09;;;;;;;15.30;13.70;;;;;;;;;;5338551;27;20410;-80
2022/06/30 01:41:41;;;;;;;16.87;14.60;;;;;;;;;;5336910;27;20284;-80
2022/06/30 01:44:12;;;;;;;17.37;14.13;;;;;;;;;;5340354;27;20693;-80
2022/06/30 01:46:47;;;;;;;15.70;14.17;;;;;;;;;;5338028;27;20281;-80
2022/06/30 01:49:18;;;;;;;14.85;13.32;;;;;;;;;;5338478;27;21278;-80
2022/06/30 01:51:49;;;;;;;10.50;9.40;;;;;;;;;;5340757;27;20011;-80
2022/06/30 01:54:21;;;;;;;15.30;13.67;;;;;;;;;;5338990;27;20047;-80
2022/06/30 01:56:52;;;;;;;12.48;10.88;;;;;;;;;;5341374;27;20085;-80
2022/06/30 01:59:23;;;;;;;12.07;10.53;;;;;;;;;;5337143;27;20036;-80
2022/06/30 02:01:54;;;;;;;8.20;7.40;;;;;;;;;;5339238;27;20035;-80
2022/06/30 02:07:16;;;;;;;10.32;9.43;;;;;;;;;;5338446;27;20357;-79
2022/06/30 02:09:50;;;;;;;10.25;9.32;;;;;;;;;;5334242;27;20046;-79
2022/06/30 02:15:13;;;;;;;16.25;14.55;;;;;;;;;;5340010;27;20043;-80
2022/06/30 02:17:44;;;;;;;13.07;11.50;;;;;;;;;;5342073;27;20106;-80
2022/06/30 02:20:20;;;;;;;13.85;12.45;;;;;;;;;;5338002;27;20091;-80
2022/06/30 02:22:53;;;;;;;16.30;12.93;;;;;;;;;;5340961;27;20027;-80
2022/06/30 02:25:25;;;;;;;15.15;12.80;;;;;;;;;;5333981;27;20043;-80
2022/06/30 02:27:56;;;;;;;9.40;8.52;;;;;;;;;;5339849;27;20499;-80
2022/06/30 02:30:28;;;;;;;12.93;11.65;;;;;;;;;;5338575;27;20405;-80
2022/06/30 02:32:59;;;;;;;13.30;12.20;;;;;;;;;;5336532;27;20023;-80
2022/06/30 02:35:30;;;;;;;14.07;12.73;;;;;;;;;;5339583;27;20046;-80
2022/06/30 02:38:08;;;;;;;9.40;8.47;;;;;;;;;;5339754;27;20043;-80
2022/06/30 02:40:39;;;;;;;11.15;10.00;;;;;;;;;;5339635;27;20258;-80
2022/06/30 02:43:11;;;;;;;9.87;8.67;;;;;;;;;;5339389;27;20486;-81
2022/06/30 02:45:42;;;;;;;11.75;10.05;;;;;;;;;;5337251;27;20285;-81
2022/06/30 02:48:13;;;;;;;10.07;8.60;;;;;;;;;;5342265;27;20093;-82
2022/06/30 02:50:45;;;;;;;11.65;10.23;;;;;;;;;;5339547;27;20028;-81
2022/06/30 02:53:16;;;;;;;11.43;10.52;;;;;;;;;;5340546;27;20031;-82
2022/06/30 02:55:48;;;;;;;12.95;11.73;;;;;;;;;;5341046;27;20115;-81
2022/06/30 02:58:19;;;;;;;11.98;10.40;;;;;;;;;;5341508;27;20046;-81
2022/06/30 03:00:50;;;;;;;15.63;13.82;;;;;;;;;;5340425;27;20032;-81
2022/06/30 03:03:21;;;;;;;11.10;10.00;;;;;;;;;;5342769;27;20035;-81
2022/06/30 03:05:52;;;;;;;12.63;10.13;;;;;;;;;;5340097;27;20027;-80
2022/06/30 03:08:24;;;;;;;19.43;12.17;;;;;;;;;;5340900;27;20292;-81
2022/06/30 03:10:55;;;;;;;16.53;14.93;;;;;;;;;;5339907;27;20274;-81
2022/06/30 03:13:26;;;;;;;16.52;14.88;;;;;;;;;;5336450;27;20126;-81
2022/06/30 03:15:57;;;;;;;12.33;11.23;;;;;;;;;;5339153;27;20028;-81
2022/06/30 03:18:28;;;;;;;15.55;14.05;;;;;;;;;;5336832;27;20961;-81
2022/06/30 03:21:00;;;;;;;15.57;14.07;;;;;;;;;;5338859;27;20039;-80
2022/06/30 03:23:31;;;;;;;10.10;9.20;;;;;;;;;;5338405;27;20270;-81
2022/06/30 03:26:02;;;;;;;17.80;15.93;;;;;;;;;;5341517;27;20297;-81
2022/06/30 03:28:34;;;;;;;12.98;11.68;;;;;;;;;;5338892;27;20050;-80
2022/06/30 03:31:05;;;;;;;10.43;9.52;;;;;;;;;;5338881;27;20592;-81
2022/06/30 03:33:37;;;;;;;16.85;15.32;;;;;;;;;;5340327;27;20031;-81
2022/06/30 03:36:08;;;;;;;14.15;12.85;;;;;;;;;;5335869;27;20039;-80
2022/06/30 03:38:39;;;;;;;12.25;11.23;;;;;;;;;;5341296;27;20035;-81
2022/06/30 03:41:10;;;;;;;11.57;10.37;;;;;;;;;;5341242;27;20108;-80
2022/06/30 03:43:42;;;;;;;10.95;9.98;;;;;;;;;;5338882;27;20032;-81
2022/06/30 03:46:13;;;;;;;10.27;9.48;;;;;;;;;;5339226;27;20032;-81
2022/06/30 03:48:44;;;;;;;10.32;9.43;;;;;;;;;;5341764;27;20065;-81
2022/06/30 03:51:16;;;;;;;11.57;10.63;;;;;;;;;;5340828;27;21858;-80
2022/06/30 03:53:47;;;;;;;17.02;15.43;;;;;;;;;;5340018;27;20467;-81
2022/06/30 03:56:21;;;;;;;14.33;13.03;;;;;;;;;;5343136;27;20356;-80
2022/06/30 03:58:52;;;;;;;17.55;15.85;;;;;;;;;;5345552;27;20618;-81
2022/06/30 04:01:24;;;;;;;18.42;15.27;;;;;;;;;;5347465;27;20028;-80
2022/06/30 04:03:55;;;;;;;11.93;10.87;;;;;;;;;;5351799;27;20108;-81
2022/06/30 04:06:26;;;;;;;14.80;13.30;;;;;;;;;;5344577;27;20105;-81
2022/06/30 04:08:57;;;;;;;15.55;13.75;;;;;;;;;;5344634;27;20281;-80
2022/06/30 04:11:28;;;;;;;14.82;13.23;;;;;;;;;;5340441;27;20533;-80
2022/06/30 04:14:00;;;;;;;18.20;13.90;;;;;;;;;;5338642;27;20083;-81
2022/06/30 04:16:31;;;;;;;13.70;12.45;;;;;;;;;;5338988;27;20270;-80
2022/06/30 04:19:02;;;;;;;14.57;12.77;;;;;;;;;;5333888;27;20078;-80
2022/06/30 04:21:33;;;;;;;15.10;10.93;;;;;;;;;;5338684;27;20270;-80
2022/06/30 04:24:05;;;;;;;17.20;12.63;;;;;;;;;;5333788;27;20031;-79
2022/06/30 04:26:36;;;;;;;13.02;11.70;;;;;;;;;;5335835;27;20243;-79
2022/06/30 04:29:07;;;;;;;14.48;12.35;;;;;;;;;;5333625;27;20039;-79
2022/06/30 04:34:28;;;;;;;14.00;10.63;;;;;;;;;;5336980;27;20281;-80
2022/06/30 04:37:00;;;;;;;15.25;11.48;;;;;;;;;;5337872;27;20031;-79
2022/06/30 04:39:31;;;;;;;15.07;13.77;;;;;;;;;;5334681;27;20047;-79
2022/06/30 04:42:02;;;;;;;18.70;16.33;;;;;;;;;;5338906;27;20274;-79
2022/06/30 04:44:34;;;;;;;17.65;15.90;;;;;;;;;;5336556;27;20380;-80
2022/06/30 04:47:05;;;;;;;17.50;15.88;;;;;;;;;;5338904;27;20038;-79
2022/06/30 04:49:36;;;;;;;20.77;18.80;;;;;;;;;;5332723;27;20094;-79
2022/06/30 04:52:07;;;;;;;29.27;19.63;;;;;;;;;;5336797;27;20478;-79
2022/06/30 04:54:38;;;;;;;21.43;19.23;;;;;;;;;;5327306;27;20024;-79
2022/06/30 04:57:10;;;;;;;21.77;19.53;;;;;;;;;;5346094;27;20567;-79
2022/06/30 04:59:41;;;;;;;24.75;22.20;;;;;;;;;;5338025;27;20270;-80
2022/06/30 05:02:12;;;;;;;25.53;23.13;;;;;;;;;;5340355;27;20408;-79
2022/06/30 05:04:43;;;;;;;27.10;24.38;;;;;;;;;;5341707;27;20300;-80
2022/06/30 05:07:16;;;;;;;26.93;24.03;;;;;;;;;;5340075;27;20384;-80
2022/06/30 05:09:47;;;;;;;25.27;22.63;;;;;;;;;;5336709;27;20718;-79
2022/06/30 05:12:19;;;;;;;24.35;21.95;;;;;;;;;;5339817;27;20103;-79
2022/06/30 05:14:50;;;;;;;25.88;23.08;;;;;;;;;;5343409;27;20008;-80
2022/06/30 05:17:21;;;;;;;23.73;21.33;;;;;;;;;;5363027;27;20015;-79
2022/06/30 05:19:53;;;;;;;32.60;29.33;;;;;;;;;;5357104;27;20634;-80
2022/06/30 05:22:24;;;;;;;29.63;26.70;;;;;;;;;;5353205;27;20026;-80
2022/06/30 05:27:46;;;;;;;24.23;22.02;;;;;;;;;;5343475;27;20314;-78
2022/06/30 05:30:17;;;;;;;26.60;24.10;;;;;;;;;;5336048;27;20040;-80
2022/06/30 05:32:48;;;;;;;27.30;24.67;;;;;;;;;;5338332;27;20518;-80
2022/06/30 05:35:20;;;;;;;26.83;24.03;;;;;;;;;;5349063;27;20031;-80
2022/06/30 05:37:51;;;;;;;22.83;19.92;;;;;;;;;;5345908;27;20250;-81
2022/06/30 05:40:22;;;;;;;24.17;18.73;;;;;;;;;;5328985;27;20096;-80
2022/06/30 05:42:54;;;;;;;17.33;15.57;;;;;;;;;;5331840;27;20039;-79
2022/06/30 05:45:25;;;;;;;16.70;14.98;;;;;;;;;;5350999;27;20277;-80
2022/06/30 05:47:56;;;;;;;17.23;14.90;;;;;;;;;;5328714;27;20388;-80
2022/06/30 05:50:28;;;;;;;16.87;13.57;;;;;;;;;;5338235;27;20074;-81
2022/06/30 05:52:59;;;;;;;17.08;13.43;;;;;;;;;;5327361;27;20274;-80
2022/06/30 05:55:30;;;;;;;13.00;11.70;;;;;;;;;;5326044;28;20094;-81
2022/06/30 05:58:03;;;;;;;12.27;10.87;;;;;;;;;;5343720;27;20258;-81
2022/06/30 06:00:35;;;;;;;16.83;10.90;;;;;;;;;;5347059;27;20234;-81
2022/06/30 06:03:06;;;;;;;12.53;10.43;;;;;;;;;;5348068;27;20037;-81
2022/06/30 06:05:37;;;;;;;10.83;9.73;;;;;;;;;;5338157;27;20028;-81
2022/06/30 06:08:09;;;;;;;10.97;9.97;;;;;;;;;;5347233;27;20280;-80
2022/06/30 06:10:40;;;;;;;13.40;10.20;;;;;;;;;;5335096;27;20084;-81
2022/06/30 06:13:13;;;;;;;11.80;8.93;;;;;;;;;;5338484;27;20046;-81
2022/06/30 06:15:44;;;;;;;15.02;10.05;;;;;;;;;;5348666;27;20024;-81
2022/06/30 06:18:16;;;;;;;12.32;9.52;;;;;;;;;;5345421;27;20027;-81
2022/06/30 06:20:47;;;;;;;12.00;9.70;;;;;;;;;;5335174;27;20028;-81
2022/06/30 06:23:18;;;;;;;11.47;8.67;;;;;;;;;;5346139;27;20031;-81
2022/06/30 06:25:51;;;;;;;13.13;9.63;;;;;;;;;;5334162;27;20480;-81
2022/06/30 06:31:12;;;;;;;9.25;7.93;;;;;;;;;;5337025;27;20185;-81
2022/06/30 06:33:45;;;;;;;12.48;8.00;;;;;;;;;;5343194;27;20112;-81
2022/06/30 06:36:17;;;;;;;11.32;7.45;;;;;;;;;;5341130;27;20032;-81
2022/06/30 06:38:48;;;;;;;15.18;8.05;;;;;;;;;;5330374;27;20031;-81
2022/06/30 06:41:20;;;;;;;9.50;7.75;;;;;;;;;;5325743;28;20142;-81
2022/06/30 06:43:52;;;;;;;13.55;8.15;;;;;;;;;;5326900;27;20021;-81
2022/06/30 06:46:27;;;;;;;17.98;8.45;;;;;;;;;;5326703;27;20028;-82
2022/06/30 06:49:03;;;;;;;15.68;8.40;;;;;;;;;;5328082;27;20420;-82
2022/06/30 06:51:34;;;;;;;13.07;7.43;;;;;;;;;;5345702;27;20051;-82
2022/06/30 06:54:06;;;;;;;13.32;8.18;;;;;;;;;;5347277;27;20047;-82
2022/06/30 06:56:37;;;;;;;10.53;7.23;;;;;;;;;;5346736;27;20114;-82
2022/06/30 06:59:08;;;;;;;11.20;7.27;;;;;;;;;;5348447;27;20111;-81
2022/06/30 07:01:41;;;;;;;9.47;7.63;;;;;;;;;;5332916;27;20257;-81
2022/06/30 07:04:12;;;;;;;12.70;7.40;;;;;;;;;;5326356;27;20266;-82
2022/06/30 07:06:43;;;;;;;11.83;7.07;;;;;;;;;;5325271;28;20114;-82
2022/06/30 07:09:14;;;;;;;13.80;7.00;;;;;;;;;;5325000;27;20038;-82
2022/06/30 07:11:48;;;;;;;13.50;7.03;;;;;;;;;;5325114;27;20693;-81
2022/06/30 07:14:19;;;;;;;11.15;6.47;;;;;;;;;;5324844;28;20032;-82
2022/06/30 07:16:50;;;;;;;11.90;6.70;;;;;;;;;;5344187;27;20031;-82
2022/06/30 07:19:21;;;;;;;14.90;6.30;;;;;;;;;;5346159;27;20032;-82
2022/06/30 07:21:52;;;;;;;9.13;6.27;;;;;;;;;;5348174;27;20024;-82
2022/06/30 07:24:24;;;;;;;11.20;5.93;;;;;;;;;;5341562;27;20052;-81
2022/06/30 07:26:55;;;;;;;13.70;6.10;;;;;;;;;;5326091;28;20123;-82
2022/06/30 07:29:26;;;;;;;13.40;6.23;;;;;;;;;;5325014;27;20024;-82
2022/06/30 07:31:58;;;;;;;12.52;5.40;;;;;;;;;;5344628;27;20475;-82
2022/06/30 07:34:29;;;;;;;9.47;4.87;;;;;;;;;;5347202;27;20412;-82
2022/06/30 07:37:00;;;;;;;10.20;5.73;;;;;;;;;;5345788;27;20024;-82
2022/06/30 07:39:31;;;;;;;7.37;4.27;;;;;;;;;;5347334;27;20333;-82
2022/06/30 07:42:02;;;;;;;9.83;4.70;;;;;;;;;;5355233;27;20030;-82
2022/06/30 07:44:34;;;;;;;8.98;4.20;;;;;;;;;;5347676;27;20031;-82
2022/06/30 07:47:05;;;;;;;10.87;4.93;;;;;;;;;;5345331;27;20019;-82
2022/06/30 07:49:38;;;;;;;7.67;4.10;;;;;;;;;;5347688;27;20276;-82
2022/06/30 07:52:09;;;;;;;12.25;3.95;;;;;;;;;;5346435;27;20127;-82
2022/06/30 07:54:41;;;;;;;12.05;4.35;;;;;;;;;;5345863;27;20035;-82
2022/06/30 07:57:12;;;;;;;7.50;3.43;;;;;;;;;;5347356;27;20035;-82
2022/06/30 07:59:44;;;;;;;8.27;4.13;;;;;;;;;;5345780;27;20282;-82
2022/06/30 08:02:15;;;;;;;9.47;3.63;;;;;;;;;;5346491;27;20024;-82
2022/06/30 08:04:46;;;;;;;8.50;3.90;;;;;;;;;;5346026;27;20097;-82
2022/06/30 08:07:17;;;;;;;11.48;3.58;;;;;;;;;;5347186;27;20023;-82
2022/06/30 08:09:49;;;;;;;11.77;3.60;;;;;;;;;;5345454;27;20023;-82
2022/06/30 08:12:21;;;;;;;9.15;3.25;;;;;;;;;;5346314;27;20031;-82
2022/06/30 08:14:52;;;;;;;6.15;3.53;;;;;;;;;;5346926;27;20034;-82
2022/06/30 08:17:23;;;;;;;10.33;4.10;;;;;;;;;;5345403;27;20339;-82
2022/06/30 08:19:54;;;;;;;7.00;3.80;;;;;;;;;;5346069;27;20015;-82
2022/06/30 08:22:26;;;;;;;6.73;3.40;;;;;;;;;;5346812;27;20405;-82
2022/06/30 08:24:58;;;;;;;6.10;2.90;;;;;;;;;;5345563;27;20024;-82
2022/06/30 08:27:29;;;;;;;7.50;3.33;;;;;;;;;;5346001;27;20127;-82
2022/06/30 08:30:01;;;;;;;7.67;3.20;;;;;;;;;;5346890;27;20466;-82
2022/06/30 08:32:32;;;;;;;15.43;3.73;;;;;;;;;;5349418;27;20019;-81
2022/06/30 08:35:03;;;;;;;9.07;3.37;;;;;;;;;;5342619;27;20278;-81
2022/06/30 08:37:35;;;;;;;7.18;3.03;;;;;;;;;;5351985;27;20027;-82
2022/06/30 08:42:57;;;;;;;5.57;3.00;;;;;;;;;;5349647;27;20467;-82
2022/06/30 08:45:29;;;;;;;8.68;3.42;;;;;;;;;;5346961;27;20035;-82
2022/06/30 08:48:00;;;;;;;7.88;3.83;;;;;;;;;;5346573;27;20053;-82
2022/06/30 08:50:32;;;;;;;7.53;3.67;;;;;;;;;;5345052;27;20024;-82
2022/06/30 08:53:03;;;;;;;6.80;3.08;;;;;;;;;;5345182;27;20028;-82
2022/06/30 08:55:35;;;;;;;8.75;3.42;;;;;;;;;;5346626;27;20020;-82
2022/06/30 08:58:08;;;;;;;9.90;2.65;;;;;;;;;;5346531;27;20022;-82
2022/06/30 09:00:40;;;;;;;6.65;2.80;;;;;;;;;;5346322;27;20053;-81
2022/06/30 09:03:12;;;;;;;5.40;2.80;;;;;;;;;;5330190;27;20383;-82
2022/06/30 09:05:46;;;;;;;10.13;2.67;;;;;;;;;;5346451;27;20028;-81
2022/06/30 09:08:17;;;;;;;7.55;2.30;;;;;;;;;;5345780;27;20172;-81
2022/06/30 09:10:50;;;;;;;7.13;2.80;;;;;;;;;;5344792;27;20043;-81
2022/06/30 09:13:22;;;;;;;8.63;2.60;;;;;;;;;;5346224;27;20027;-82
2022/06/30 09:15:58;;;;;;;4.93;2.15;;;;;;;;;;5345054;27;20035;-82
2022/06/30 09:18:29;;;;;;;8.00;2.42;;;;;;;;;;5346889;27;20016;-81
2022/06/30 09:21:06;;;;;;;8.90;2.23;;;;;;;;;;5346726;27;20019;-82
2022/06/30 09:23:37;;;;;;;5.32;2.40;;;;;;;;;;5333700;27;20131;-81
2022/06/30 09:26:14;;;;;;;7.90;2.47;;;;;;;;;;5346833;27;20531;-81
2022/06/30 09:28:50;;;;;;;5.10;2.30;;;;;;;;;;5349512;27;20059;-82
2022/06/30 09:31:31;;;;;;;5.22;2.20;;;;;;;;;;5348759;27;20329;-82
2022/06/30 09:34:16;;;;;;;6.70;2.15;;;;;;;;;;5338993;27;20032;-82
2022/06/30 09:36:51;;;;;;;5.95;2.00;;;;;;;;;;5327280;27;20360;-82
2022/06/30 09:39:22;;;;;;;4.85;2.40;;;;;;;;;;5327360;27;20423;-82
2022/06/30 09:41:53;;;;;;;6.00;2.63;;;;;;;;;;5339907;27;20024;-81
2022/06/30 09:44:25;;;;;;;5.67;2.70;;;;;;;;;;5347763;27;20088;-82
2022/06/30 09:46:56;;;;;;;6.00;2.30;;;;;;;;;;5349456;27;20027;-81
2022/06/30 09:49:32;;;;;;;5.45;2.00;;;;;;;;;;5348370;27;20024;-81
2022/06/30 09:52:04;;;;;;;5.53;2.20;;;;;;;;;;5348689;27;20127;-82
2022/06/30 09:54:35;;;;;;;7.90;2.50;;;;;;;;;;5349091;27;20450;-81
2022/06/30 09:57:07;;;;;;;4.73;1.93;;;;;;;;;;5334917;27;20263;-82
2022/06/30 09:59:38;;;;;;;7.47;2.15;;;;;;;;;;5334126;27;20415;-82
2022/06/30 10:02:10;;;;;;;6.00;2.20;;;;;;;;;;5345812;27;20126;-82
2022/06/30 10:04:54;;;;;;;6.22;2.20;;;;;;;;;;5333032;27;20031;-83
2022/06/30 10:07:26;;;;;;;6.68;2.35;;;;;;;;;;5340588;27;20474;-82
2022/06/30 10:09:57;;;;;;;5.90;2.40;;;;;;;;;;5347228;27;20054;-81
2022/06/30 10:12:28;;;;;;;5.32;1.75;;;;;;;;;;5347079;27;20129;-82
2022/06/30 10:15:00;;;;;;;7.15;2.20;;;;;;;;;;5333953;27;20039;-81
2022/06/30 10:17:34;;;;;;;6.88;2.20;;;;;;;;;;5346248;27;20490;-81
2022/06/30 10:20:05;;;;;;;5.13;1.70;;;;;;;;;;5349148;27;20076;-82
2022/06/30 10:22:39;;;;;;;4.88;1.77;;;;;;;;;;5346612;27;20016;-81
2022/06/30 10:25:10;;;;;;;6.72;2.67;;;;;;;;;;5344115;27;20106;-82
2022/06/30 10:27:44;;;;;;;7.83;2.20;;;;;;;;;;5336753;27;20071;-81
2022/06/30 10:30:16;;;;;;;5.25;1.90;;;;;;;;;;5338362;27;20040;-81
2022/06/30 10:32:56;;;;;;;5.30;2.63;;;;;;;;;;5337976;27;20023;-82
2022/06/30 10:35:38;;;;;;;8.15;2.55;;;;;;;;;;5338637;27;20035;-82
2022/06/30 10:38:12;;;;;;;5.25;2.22;;;;;;;;;;5342850;27;20027;-82
2022/06/30 10:40:49;;;;;;;5.38;1.90;;;;;;;;;;5354273;27;20914;-81
2022/06/30 10:43:20;;;;;;;5.05;2.30;;;;;;;;;;5350672;27;20115;-81
2022/06/30 10:45:55;;;;;;;4.87;2.03;;;;;;;;;;5351765;27;20053;-82
2022/06/30 10:48:29;;;;;;;5.28;1.60;;;;;;;;;;5368887;27;20063;-82
2022/06/30 10:51:12;;;;;;;6.85;1.70;;;;;;;;;;5357512;27;20466;-82
2022/06/30 10:53:43;;;;;;;5.30;1.80;;;;;;;;;;5346597;27;20030;-82
2022/06/30 10:56:15;;;;;;;3.75;1.45;;;;;;;;;;5346697;27;20043;-82
2022/06/30 10:59:05;;;;;;;4.53;1.48;;;;;;;;;;5349964;27;20020;-82
2022/06/30 11:01:39;;;;;;;3.65;1.90;;;;;;;;;;5354211;27;20043;-81
2022/06/30 11:04:11;;;;;;;3.50;1.27;;;;;;;;;;5352676;27;20012;-81
2022/06/30 11:06:58;;;;;;;7.60;1.67;;;;;;;;;;5353415;27;20038;-82
2022/06/30 11:09:48;;;;;;;6.68;1.90;;;;;;;;;;5348350;27;20131;-82
2022/06/30 11:12:23;;;;;;;3.60;2.10;;;;;;;;;;5346542;27;20375;-81
2022/06/30 11:14:56;;;;;;;7.38;2.40;;;;;;;;;;5346587;27;20032;-80
2022/06/30 11:17:28;;;;;;;5.82;1.55;;;;;;;;;;5328307;27;20016;-81
2022/06/30 11:20:00;;;;;;;6.93;1.90;;;;;;;;;;5328861;27;20105;-81
2022/06/30 11:22:31;;;;;;;6.35;1.80;;;;;;;;;;5343959;27;20028;-81
2022/06/30 11:25:06;;;;;;;4.45;1.80;;;;;;;;;;5337847;27;20027;-81
2022/06/30 11:27:38;;;;;;;5.28;2.10;;;;;;;;;;5348656;27;20127;-81
2022/06/30 11:30:10;;;;;;;4.38;1.83;;;;;;;;;;5345341;27;20056;-81
2022/06/30 11:32:41;;;;;;;4.47;2.28;;;;;;;;;;5342884;27;20023;-81
2022/06/30 11:35:12;;;;;;;8.63;1.70;;;;;;;;;;5343236;27;20038;-81
2022/06/30 11:37:44;;;;;;;3.63;1.70;;;;;;;;;;5345272;27;20085;-81
2022/06/30 11:40:17;;;;;;;5.70;1.75;;;;;;;;;;5345667;27;20475;-81
2022/06/30 11:42:50;;;;;;;3.92;1.80;;;;;;;;;;5345628;27;20391;-81
2022/06/30 11:45:23;;;;;;;5.85;1.83;;;;;;;;;;5343424;27;20362;-81
2022/06/30 11:47:55;;;;;;;2.47;1.40;;;;;;;;;;5344310;27;20016;-81
2022/06/30 11:50:27;;;;;;;5.45;1.75;;;;;;;;;;5345598;27;20024;-81
2022/06/30 11:53:00;;;;;;;6.50;1.98;;;;;;;;;;5344783;27;20030;-81
2022/06/30 11:55:31;;;;;;;3.38;1.90;;;;;;;;;;5344762;27;20061;-81
2022/06/30 11:58:02;;;;;;;5.97;2.10;;;;;;;;;;5337859;27;20024;-81
2022/06/30 12:00:33;;;;;;;4.63;1.80;;;;;;;;;;5344717;27;20561;-81
2022/06/30 12:03:10;;;;;;;5.37;2.60;;;;;;;;;;5345175;27;20379;-81
2022/06/30 12:05:41;;;;;;;3.40;1.35;;;;;;;;;;5338412;27;20036;-81
2022/06/30 12:08:12;;;;;;;5.03;1.80;;;;;;;;;;5341433;27;20034;-81
2022/06/30 12:10:44;;;;;;;7.13;1.87;;;;;;;;;;5346686;27;20039;-81
2022/06/30 12:13:16;;;;;;;7.00;1.80;;;;;;;;;;5336660;27;20254;-81
2022/06/30 12:15:49;;;;;;;4.53;1.90;;;;;;;;;;5345439;27;20024;-81
2022/06/30 12:18:24;;;;;;;6.68;1.73;;;;;;;;;;5344719;27;20019;-81
2022/06/30 12:20:55;;;;;;;4.43;1.90;;;;;;;;;;5343900;27;20188;-81
2022/06/30 12:23:27;;;;;;;4.97;2.03;;;;;;;;;;5342937;27;20438;-81
2022/06/30 12:25:58;;;;;;;8.40;2.67;;;;;;;;;;5343365;27;20074;-81
2022/06/30 12:28:42;;;;;;;8.13;2.20;;;;;;;;;;5343613;27;20520;-81
2022/06/30 12:31:26;;;;;;;5.20;1.98;;;;;;;;;;5344669;27;20038;-81
2022/06/30 12:33:58;;;;;;;3.08;1.98;;;;;;;;;;5340011;27;20030;-81
2022/06/30 12:36:30;;;;;;;4.95;1.92;;;;;;;;;;5344278;27;20024;-81
2022/06/30 12:39:14;;;;;;;6.82;1.67;;;;;;;;;;5345234;27;20635;-81
2022/06/30 12:41:46;;;;;;;5.80;2.50;;;;;;;;;;5345191;27;20359;-81
2022/06/30 12:44:27;;;;;;;6.30;2.00;;;;;;;;;;5342498;27;20277;-81
2022/06/30 12:47:02;;;;;;;5.75;1.70;;;;;;;;;;5346135;27;20032;-81
2022/06/30 12:49:34;;;;;;;6.80;2.17;;;;;;;;;;5345819;27;20471;-81
2022/06/30 12:52:13;;;;;;;7.22;2.17;;;;;;;;;;5345021;27;20059;-81
2022/06/30 12:54:49;;;;;;;5.20;1.90;;;;;;;;;;5338891;27;20016;-81
2022/06/30 12:57:20;;;;;;;4.88;1.80;;;;;;;;;;5324717;28;20032;-81
2022/06/30 12:59:52;;;;;;;6.03;2.22;;;;;;;;;;5324387;27;20032;-81
2022/06/30 13:02:45;;;;;;;5.50;2.30;;;;;;;;;;5344907;27;20031;-81
2022/06/30 13:05:16;;;;;;;4.50;1.70;;;;;;;;;;5343989;27;20023;-81
2022/06/30 13:07:47;;;;;;;6.22;1.75;;;;;;;;;;5348355;27;20323;-81
2022/06/30 13:11:04;;;;;;;5.23;2.47;;;;;;;;;;5343660;27;20536;-81
2022/06/30 13:13:10;;;;;;;4.75;1.75;;;;;;;;;;5347601;27;20165;-81
2022/06/30 13:15:41;;;;;;;6.07;1.87;;;;;;;;;;5346498;27;20111;-81
2022/06/30 13:18:12;;;;;;;4.97;1.60;;;;;;;;;;5349947;27;20390;-81
2022/06/30 13:20:44;;;;;;;3.50;1.50;;;;;;;;;;5349636;27;20781;-81
2022/06/30 13:23:15;;;;;;;4.50;2.00;;;;;;;;;;5338757;27;20034;-81
2022/06/30 13:25:46;;;;;;;4.43;1.60;;;;;;;;;;5347263;27;20059;-81
2022/06/30 13:28:17;;;;;;;4.13;1.83;;;;;;;;;;5349141;27;20023;-81
2022/06/30 13:30:48;;;;;;;4.83;1.17;;;;;;;;;;5344868;27;20036;-81
2022/06/30 13:33:19;;;;;;;4.10;1.73;;;;;;;;;;5346869;27;20277;-81
2022/06/30 13:35:51;;;;;;;4.03;1.17;;;;;;;;;;5348935;27;20106;-81
2022/06/30 13:38:23;;;;;;;3.60;1.15;;;;;;;;;;5348945;27;20059;-81
2022/06/30 13:40:54;;;;;;;3.83;1.33;;;;;;;;;;5349919;27;20034;-81
2022/06/30 13:43:28;;;;;;;3.90;1.30;;;;;;;;;;5349253;27;20020;-81
2022/06/30 13:45:59;;;;;;;5.13;1.50;;;;;;;;;;5334603;27;20169;-81
2022/06/30 13:48:30;;;;;;;3.10;1.40;;;;;;;;;;5346429;27;20102;-81
2022/06/30 13:51:02;;;;;;;4.97;1.70;;;;;;;;;;5348945;27;20681;-81
2022/06/30 13:53:33;;;;;;;2.03;0.93;;;;;;;;;;5349138;27;20028;-81
2022/06/30 13:56:04;;;;;;;5.28;1.50;;;;;;;;;;5347299;27;20035;-80
2022/06/30 13:58:35;;;;;;;1.80;1.08;;;;;;;;;;5344523;27;20108;-81
2022/06/30 14:01:08;;;;;;;5.90;2.60;;;;;;;;;;5329967;27;20026;-81
2022/06/30 14:03:39;;;;;;;3.33;1.50;;;;;;;;;;5344841;27;20054;-81
2022/06/30 14:06:10;;;;;;;5.70;1.47;;;;;;;;;;5347258;27;20035;-81
2022/06/30 14:08:41;;;;;;;3.37;1.63;;;;;;;;;;5344667;27;20273;-81
2022/06/30 14:11:13;;;;;;;4.60;1.30;;;;;;;;;;5346164;27;20418;-80
2022/06/30 14:13:44;;;;;;;4.65;1.45;;;;;;;;;;5338871;27;21112;-80
2022/06/30 14:16:15;;;;;;;4.00;1.50;;;;;;;;;;5329799;27;20047;-81
2022/06/30 14:18:46;;;;;;;6.00;1.70;;;;;;;;;;5343967;27;20048;-81
2022/06/30 14:21:18;;;;;;;12.23;2.37;;;;;;;;;;5337904;27;20020;-80
2022/06/30 14:23:49;;;;;;;6.70;1.73;;;;;;;;;;5345156;27;20391;-80
2022/06/30 14:26:21;;;;;;;3.28;1.77;;;;;;;;;;5346901;27;20039;-80
2022/06/30 14:28:52;;;;;;;4.50;1.60;;;;;;;;;;5337505;27;20082;-79
2022/06/30 14:31:24;;;;;;;7.23;1.60;;;;;;;;;;5339739;27;20031;-80
2022/06/30 14:33:56;;;;;;;3.28;1.70;;;;;;;;;;5341767;27;20032;-80
2022/06/30 14:36:28;;;;;;;3.95;1.38;;;;;;;;;;5343963;27;20055;-81
2022/06/30 14:38:59;;;;;;;5.27;1.60;;;;;;;;;;5346795;27;20487;-80
2022/06/30 14:44:20;;;;;;;5.47;1.85;;;;;;;;;;5348181;27;20028;-81
2022/06/30 14:46:52;;;;;;;3.43;1.60;;;;;;;;;;5342263;27;20027;-80
2022/06/30 14:49:23;;;;;;;7.17;1.73;;;;;;;;;;5341491;27;20297;-80
2022/06/30 14:51:54;;;;;;;7.03;1.97;;;;;;;;;;5344325;27;20035;-80
2022/06/30 14:54:25;;;;;;;4.53;2.07;;;;;;;;;;5347504;27;20031;-80
2022/06/30 14:56:56;;;;;;;3.80;1.90;;;;;;;;;;5346500;27;20023;-80
2022/06/30 14:59:29;;;;;;;6.27;2.20;;;;;;;;;;5342078;27;20031;-80
2022/06/30 15:02:00;;;;;;;4.25;1.33;;;;;;;;;;5340765;27;20028;-80
2022/06/30 15:04:32;;;;;;;4.78;2.03;;;;;;;;;;5341628;27;20450;-80
2022/06/30 15:07:06;;;;;;;5.38;1.60;;;;;;;;;;5341697;27;20036;-81
2022/06/30 15:09:38;;;;;;;4.80;2.00;;;;;;;;;;5344803;27;20039;-80
2022/06/30 15:12:10;;;;;;;4.97;1.75;;;;;;;;;;5341312;27;20517;-80
2022/06/30 15:14:41;;;;;;;5.22;2.20;;;;;;;;;;5343360;27;20032;-80
2022/06/30 15:17:13;;;;;;;12.40;2.80;;;;;;;;;;5341079;27;20470;-80
2022/06/30 15:19:44;;;;;;;7.72;2.40;;;;;;;;;;5338860;27;20027;-80
2022/06/30 15:25:07;;;;;;;7.25;2.53;;;;;;;;;;5342512;27;20035;-80